sensor_id;sensor_type;location;lat;lon;timestamp;temperature;humidity
46117;DHT22;32591;48.102;11.772;2022-12-26T00:00:23;7.90;99.90
46117;DHT22;32591;48.102;11.772;2022-12-26T00:02:50;7.80;99.90
46117;DHT22;32591;48.102;11.772;2022-12-26T00:05:17;7.90;99.90
46117;DHT22;32591;48.102;11.772;2022-12-26T00:07:45;7.80;99.90
46117;DHT22;32591;48.102;11.772;2022-12-26T00:10:12;7.80;99.90
46117;DHT22;32591;48.102;11.772;2022-12-26T00:12:39;7.80;99.90
46117;DHT22;32591;48.102;11.772;2022-12-26T00:15:06;7.70;99.90
46117;DHT22;32591;48.102;11.772;2022-12-26T00:17:33;7.70;99.90
46117;DHT22;32591;48.102;11.772;2022-12-26T00:20:00;7.80;99.90
46117;DHT22;32591;48.102;11.772;2022-12-26T00:22:27;7.80;99.90
46117;DHT22;32591;48.102;11.772;2022-12-26T00:24:55;7.80;99.90
46117;DHT22;32591;48.102;11.772;2022-12-26T00:27:22;7.80;99.90
46117;DHT22;32591;48.102;11.772;2022-12-26T00:29:49;7.80;99.90
46117;DHT22;32591;48.102;11.772;2022-12-26T00:32:16;7.70;99.90
46117;DHT22;32591;48.102;11.772;2022-12-26T00:34:43;7.60;99.90
46117;DHT22;32591;48.102;11.772;2022-12-26T00:37:09;7.60;99.90
46117;DHT22;32591;48.102;11.772;2022-12-26T00:39:36;7.50;99.90
46117;DHT22;32591;48.102;11.772;2022-12-26T00:42:04;7.40;99.90
46117;DHT22;32591;48.102;11.772;2022-12-26T00:44:31;7.30;99.90
46117;DHT22;32591;48.102;11.772;2022-12-26T00:46:58;7.20;99.90
46117;DHT22;32591;48.102;11.772;2022-12-26T00:49:25;7.20;99.90
46117;DHT22;32591;48.102;11.772;2022-12-26T00:51:52;7.10;99.90
46117;DHT22;32591;48.102;11.772;2022-12-26T00:54:19;7.10;99.90
46117;DHT22;32591;48.102;11.772;2022-12-26T00:56:46;7.00;99.90
46117;DHT22;32591;48.102;11.772;2022-12-26T00:59:14;7.00;99.90
46117;DHT22;32591;48.102;11.772;2022-12-26T01:01:41;7.00;99.90
46117;DHT22;32591;48.102;11.772;2022-12-26T01:04:08;6.90;99.90
46117;DHT22;32591;48.102;11.772;2022-12-26T01:06:35;7.00;99.90
46117;DHT22;32591;48.102;11.772;2022-12-26T01:09:02;6.90;99.90
46117;DHT22;32591;48.102;11.772;2022-12-26T01:11:29;6.90;99.90
46117;DHT22;32591;48.102;11.772;2022-12-26T01:14:07;6.90;99.90
46117;DHT22;32591;48.102;11.772;2022-12-26T01:16:37;6.90;99.90
46117;DHT22;32591;48.102;11.772;2022-12-26T01:19:05;6.90;99.90
46117;DHT22;32591;48.102;11.772;2022-12-26T01:21:32;6.90;99.90
46117;DHT22;32591;48.102;11.772;2022-12-26T01:23:59;6.90;99.90
46117;DHT22;32591;48.102;11.772;2022-12-26T01:26:26;6.90;99.90
46117;DHT22;32591;48.102;11.772;2022-12-26T01:28:53;6.90;99.90
46117;DHT22;32591;48.102;11.772;2022-12-26T01:31:21;6.90;99.90
46117;DHT22;32591;48.102;11.772;2022-12-26T01:33:50;6.90;99.90
46117;DHT22;32591;48.102;11.772;2022-12-26T01:36:17;6.90;99.90
46117;DHT22;32591;48.102;11.772;2022-12-26T01:38:44;6.90;99.90
46117;DHT22;32591;48.102;11.772;2022-12-26T01:41:12;6.90;99.90
46117;DHT22;32591;48.102;11.772;2022-12-26T01:43:48;6.90;99.90
46117;DHT22;32591;48.102;11.772;2022-12-26T01:46:23;6.90;99.90
46117;DHT22;32591;48.102;11.772;2022-12-26T01:48:55;6.90;99.90
46117;DHT22;32591;48.102;11.772;2022-12-26T01:51:28;6.90;99.90
46117;DHT22;32591;48.102;11.772;2022-12-26T01:53:59;6.90;99.90
46117;DHT22;32591;48.102;11.772;2022-12-26T01:56:31;6.90;99.90
46117;DHT22;32591;48.102;11.772;2022-12-26T01:59:03;6.80;99.90
46117;DHT22;32591;48.102;11.772;2022-12-26T02:01:34;6.80;99.90
46117;DHT22;32591;48.102;11.772;2022-12-26T02:04:07;6.80;99.90
46117;DHT22;32591;48.102;11.772;2022-12-26T02:06:55;6.80;99.90
46117;DHT22;32591;48.102;11.772;2022-12-26T02:09:22;6.80;99.90
46117;DHT22;32591;48.102;11.772;2022-12-26T02:11:54;6.80;99.90
46117;DHT22;32591;48.102;11.772;2022-12-26T02:14:24;6.80;99.90
46117;DHT22;32591;48.102;11.772;2022-12-26T02:16:51;6.80;99.90
46117;DHT22;32591;48.102;11.772;2022-12-26T02:19:31;6.70;99.90
46117;DHT22;32591;48.102;11.772;2022-12-26T02:22:29;6.70;99.90
46117;DHT22;32591;48.102;11.772;2022-12-26T02:25:27;6.70;99.90
46117;DHT22;32591;48.102;11.772;2022-12-26T02:28:17;6.70;99.90
46117;DHT22;32591;48.102;11.772;2022-12-26T02:31:01;6.70;99.90
46117;DHT22;32591;48.102;11.772;2022-12-26T02:33:48;6.60;99.90
46117;DHT22;32591;48.102;11.772;2022-12-26T02:39:36;6.50;99.90
46117;DHT22;32591;48.102;11.772;2022-12-26T02:42:19;6.50;99.90
46117;DHT22;32591;48.102;11.772;2022-12-26T02:44:55;6.40;99.90
46117;DHT22;32591;48.102;11.772;2022-12-26T02:47:52;6.40;99.90
46117;DHT22;32591;48.102;11.772;2022-12-26T02:50:30;6.40;99.90
46117;DHT22;32591;48.102;11.772;2022-12-26T02:53:20;6.40;99.90
46117;DHT22;32591;48.102;11.772;2022-12-26T02:56:13;6.40;99.90
46117;DHT22;32591;48.102;11.772;2022-12-26T02:59:06;6.40;99.90
46117;DHT22;32591;48.102;11.772;2022-12-26T03:01:57;6.40;99.90
46117;DHT22;32591;48.102;11.772;2022-12-26T03:04:48;6.40;99.90
46117;DHT22;32591;48.102;11.772;2022-12-26T03:07:36;6.40;99.90
46117;DHT22;32591;48.102;11.772;2022-12-26T03:10:26;6.40;99.90
46117;DHT22;32591;48.102;11.772;2022-12-26T03:13:15;6.40;99.90
46117;DHT22;32591;48.102;11.772;2022-12-26T03:15:51;6.40;99.90
46117;DHT22;32591;48.102;11.772;2022-12-26T03:18:42;6.40;99.90
46117;DHT22;32591;48.102;11.772;2022-12-26T03:21:13;6.40;99.90
46117;DHT22;32591;48.102;11.772;2022-12-26T03:23:43;6.40;99.90
46117;DHT22;32591;48.102;11.772;2022-12-26T03:26:15;6.50;99.90
46117;DHT22;32591;48.102;11.772;2022-12-26T03:29:02;6.50;99.90
46117;DHT22;32591;48.102;11.772;2022-12-26T03:31:43;6.50;99.90
46117;DHT22;32591;48.102;11.772;2022-12-26T03:34:11;6.60;99.90
46117;DHT22;32591;48.102;11.772;2022-12-26T03:36:59;6.60;99.90
46117;DHT22;32591;48.102;11.772;2022-12-26T03:39:39;6.60;99.90
46117;DHT22;32591;48.102;11.772;2022-12-26T03:42:45;6.60;99.90
46117;DHT22;32591;48.102;11.772;2022-12-26T03:45:43;6.60;99.90
46117;DHT22;32591;48.102;11.772;2022-12-26T03:48:34;6.60;99.90
46117;DHT22;32591;48.102;11.772;2022-12-26T03:51:30;6.70;99.90
46117;DHT22;32591;48.102;11.772;2022-12-26T03:54:23;6.70;99.90
46117;DHT22;32591;48.102;11.772;2022-12-26T03:57:13;6.70;99.90
46117;DHT22;32591;48.102;11.772;2022-12-26T04:00:04;6.70;99.90
46117;DHT22;32591;48.102;11.772;2022-12-26T04:02:54;6.80;99.90
46117;DHT22;32591;48.102;11.772;2022-12-26T04:05:43;6.80;99.90
46117;DHT22;32591;48.102;11.772;2022-12-26T04:08:33;7.30;99.90
46117;DHT22;32591;48.102;11.772;2022-12-26T04:11:25;6.80;99.90
46117;DHT22;32591;48.102;11.772;2022-12-26T04:14:19;6.90;99.90
46117;DHT22;32591;48.102;11.772;2022-12-26T04:17:16;6.90;99.90
46117;DHT22;32591;48.102;11.772;2022-12-26T04:20:09;6.90;99.90
46117;DHT22;32591;48.102;11.772;2022-12-26T04:22:42;6.90;99.90
46117;DHT22;32591;48.102;11.772;2022-12-26T04:25:34;7.00;99.90
46117;DHT22;32591;48.102;11.772;2022-12-26T04:28:22;7.00;99.90
46117;DHT22;32591;48.102;11.772;2022-12-26T04:31:11;7.00;99.90
46117;DHT22;32591;48.102;11.772;2022-12-26T04:34:00;7.00;99.90
46117;DHT22;32591;48.102;11.772;2022-12-26T04:36:50;7.00;99.90
46117;DHT22;32591;48.102;11.772;2022-12-26T04:39:39;7.00;99.90
46117;DHT22;32591;48.102;11.772;2022-12-26T04:42:26;7.10;99.90
46117;DHT22;32591;48.102;11.772;2022-12-26T04:45:13;7.10;99.90
46117;DHT22;32591;48.102;11.772;2022-12-26T04:47:40;7.10;99.90
46117;DHT22;32591;48.102;11.772;2022-12-26T04:50:27;7.10;99.90
46117;DHT22;32591;48.102;11.772;2022-12-26T04:52:53;7.10;99.90
46117;DHT22;32591;48.102;11.772;2022-12-26T04:55:24;7.10;99.90
46117;DHT22;32591;48.102;11.772;2022-12-26T04:57:51;7.10;99.90
46117;DHT22;32591;48.102;11.772;2022-12-26T05:00:20;7.10;99.90
46117;DHT22;32591;48.102;11.772;2022-12-26T05:02:49;7.10;99.90
46117;DHT22;32591;48.102;11.772;2022-12-26T05:05:38;7.10;99.90
46117;DHT22;32591;48.102;11.772;2022-12-26T05:08:31;7.10;99.90
46117;DHT22;32591;48.102;11.772;2022-12-26T05:11:13;7.10;99.90
46117;DHT22;32591;48.102;11.772;2022-12-26T05:13:40;7.10;99.90
46117;DHT22;32591;48.102;11.772;2022-12-26T05:16:08;7.10;99.90
46117;DHT22;32591;48.102;11.772;2022-12-26T05:18:53;7.10;99.90
46117;DHT22;32591;48.102;11.772;2022-12-26T05:21:34;7.10;99.90
46117;DHT22;32591;48.102;11.772;2022-12-26T05:24:19;7.20;99.90
46117;DHT22;32591;48.102;11.772;2022-12-26T05:27:03;7.10;99.90
46117;DHT22;32591;48.102;11.772;2022-12-26T05:29:47;7.20;99.90
46117;DHT22;32591;48.102;11.772;2022-12-26T05:32:15;7.20;99.90
46117;DHT22;32591;48.102;11.772;2022-12-26T05:34:59;7.30;99.90
46117;DHT22;32591;48.102;11.772;2022-12-26T05:37:26;7.30;99.90
46117;DHT22;32591;48.102;11.772;2022-12-26T05:39:53;7.00;99.90
46117;DHT22;32591;48.102;11.772;2022-12-26T05:42:20;7.40;99.90
46117;DHT22;32591;48.102;11.772;2022-12-26T05:44:47;7.40;99.90
46117;DHT22;32591;48.102;11.772;2022-12-26T05:47:15;7.40;99.90
46117;DHT22;32591;48.102;11.772;2022-12-26T05:49:42;7.40;99.90
46117;DHT22;32591;48.102;11.772;2022-12-26T05:52:09;7.40;99.90
46117;DHT22;32591;48.102;11.772;2022-12-26T05:54:36;7.40;99.90
46117;DHT22;32591;48.102;11.772;2022-12-26T05:57:02;7.40;99.90
46117;DHT22;32591;48.102;11.772;2022-12-26T05:59:29;7.40;99.90
46117;DHT22;32591;48.102;11.772;2022-12-26T06:01:56;7.40;99.90
46117;DHT22;32591;48.102;11.772;2022-12-26T06:04:24;7.40;99.90
46117;DHT22;32591;48.102;11.772;2022-12-26T06:06:52;7.40;99.90
46117;DHT22;32591;48.102;11.772;2022-12-26T06:09:21;7.30;99.90
46117;DHT22;32591;48.102;11.772;2022-12-26T06:11:48;7.30;99.90
46117;DHT22;32591;48.102;11.772;2022-12-26T06:14:15;7.30;99.90
46117;DHT22;32591;48.102;11.772;2022-12-26T06:16:42;7.30;99.90
46117;DHT22;32591;48.102;11.772;2022-12-26T06:19:09;7.20;99.90
46117;DHT22;32591;48.102;11.772;2022-12-26T06:21:38;7.20;99.90
46117;DHT22;32591;48.102;11.772;2022-12-26T06:24:05;7.30;99.90
46117;DHT22;32591;48.102;11.772;2022-12-26T06:26:32;7.30;99.90
46117;DHT22;32591;48.102;11.772;2022-12-26T06:28:59;7.30;99.90
46117;DHT22;32591;48.102;11.772;2022-12-26T06:31:26;7.30;99.90
46117;DHT22;32591;48.102;11.772;2022-12-26T06:33:55;7.30;99.90
46117;DHT22;32591;48.102;11.772;2022-12-26T06:36:25;7.30;99.90
46117;DHT22;32591;48.102;11.772;2022-12-26T06:38:53;7.30;99.90
46117;DHT22;32591;48.102;11.772;2022-12-26T06:41:23;7.30;99.90
46117;DHT22;32591;48.102;11.772;2022-12-26T06:43:50;7.30;99.90
46117;DHT22;32591;48.102;11.772;2022-12-26T06:46:19;7.30;99.90
46117;DHT22;32591;48.102;11.772;2022-12-26T06:48:47;7.30;99.90
46117;DHT22;32591;48.102;11.772;2022-12-26T06:51:16;7.30;99.90
46117;DHT22;32591;48.102;11.772;2022-12-26T06:53:45;7.30;99.90
46117;DHT22;32591;48.102;11.772;2022-12-26T06:56:16;7.40;99.90
46117;DHT22;32591;48.102;11.772;2022-12-26T06:58:43;7.40;99.90
46117;DHT22;32591;48.102;11.772;2022-12-26T07:01:12;7.50;99.90
46117;DHT22;32591;48.102;11.772;2022-12-26T07:03:41;7.50;99.90
46117;DHT22;32591;48.102;11.772;2022-12-26T07:06:12;7.50;99.90
46117;DHT22;32591;48.102;11.772;2022-12-26T07:08:46;7.50;99.90
46117;DHT22;32591;48.102;11.772;2022-12-26T07:11:16;7.60;99.90
46117;DHT22;32591;48.102;11.772;2022-12-26T07:13:43;8.10;99.90
46117;DHT22;32591;48.102;11.772;2022-12-26T07:16:11;7.80;99.90
46117;DHT22;32591;48.102;11.772;2022-12-26T07:18:38;7.80;99.90
46117;DHT22;32591;48.102;11.772;2022-12-26T07:21:06;8.00;99.90
46117;DHT22;32591;48.102;11.772;2022-12-26T07:23:35;8.00;99.90
46117;DHT22;32591;48.102;11.772;2022-12-26T07:26:02;8.00;99.90
46117;DHT22;32591;48.102;11.772;2022-12-26T07:28:31;8.10;99.90
46117;DHT22;32591;48.102;11.772;2022-12-26T07:30:58;8.10;99.90
46117;DHT22;32591;48.102;11.772;2022-12-26T07:33:25;8.10;99.90
46117;DHT22;32591;48.102;11.772;2022-12-26T07:35:53;8.10;99.90
46117;DHT22;32591;48.102;11.772;2022-12-26T07:38:20;8.10;99.90
46117;DHT22;32591;48.102;11.772;2022-12-26T07:40:47;8.10;99.90
46117;DHT22;32591;48.102;11.772;2022-12-26T07:43:13;8.20;99.90
46117;DHT22;32591;48.102;11.772;2022-12-26T07:45:42;8.20;99.90
46117;DHT22;32591;48.102;11.772;2022-12-26T07:48:08;8.40;99.90
46117;DHT22;32591;48.102;11.772;2022-12-26T07:50:36;8.30;99.90
46117;DHT22;32591;48.102;11.772;2022-12-26T07:53:02;8.40;99.90
46117;DHT22;32591;48.102;11.772;2022-12-26T07:55:29;8.40;99.90
46117;DHT22;32591;48.102;11.772;2022-12-26T07:57:56;8.50;99.90
46117;DHT22;32591;48.102;11.772;2022-12-26T08:00:23;8.50;99.90
46117;DHT22;32591;48.102;11.772;2022-12-26T08:02:52;8.60;99.90
46117;DHT22;32591;48.102;11.772;2022-12-26T08:05:19;8.60;99.90
46117;DHT22;32591;48.102;11.772;2022-12-26T08:07:46;8.60;99.90
46117;DHT22;32591;48.102;11.772;2022-12-26T08:10:14;8.60;99.90
46117;DHT22;32591;48.102;11.772;2022-12-26T08:12:41;8.70;99.90
46117;DHT22;32591;48.102;11.772;2022-12-26T08:15:10;8.70;99.90
46117;DHT22;32591;48.102;11.772;2022-12-26T08:17:38;8.80;99.90
46117;DHT22;32591;48.102;11.772;2022-12-26T08:20:07;8.80;99.90
46117;DHT22;32591;48.102;11.772;2022-12-26T08:22:34;8.80;99.90
46117;DHT22;32591;48.102;11.772;2022-12-26T08:25:01;8.80;99.90
46117;DHT22;32591;48.102;11.772;2022-12-26T08:27:29;8.90;99.90
46117;DHT22;32591;48.102;11.772;2022-12-26T08:29:55;8.90;99.90
46117;DHT22;32591;48.102;11.772;2022-12-26T08:32:23;8.90;99.90
46117;DHT22;32591;48.102;11.772;2022-12-26T08:34:50;8.90;99.90
46117;DHT22;32591;48.102;11.772;2022-12-26T08:37:18;8.90;99.90
46117;DHT22;32591;48.102;11.772;2022-12-26T08:39:45;8.90;99.90
46117;DHT22;32591;48.102;11.772;2022-12-26T08:42:12;8.90;99.90
46117;DHT22;32591;48.102;11.772;2022-12-26T08:44:39;8.90;99.90
46117;DHT22;32591;48.102;11.772;2022-12-26T08:47:05;9.00;99.90
46117;DHT22;32591;48.102;11.772;2022-12-26T08:49:32;9.00;99.90
46117;DHT22;32591;48.102;11.772;2022-12-26T08:52:00;9.00;99.90
46117;DHT22;32591;48.102;11.772;2022-12-26T08:54:29;9.10;99.90
46117;DHT22;32591;48.102;11.772;2022-12-26T08:56:56;9.20;99.90
46117;DHT22;32591;48.102;11.772;2022-12-26T08:59:23;9.20;99.90
46117;DHT22;32591;48.102;11.772;2022-12-26T09:01:50;9.30;99.90
46117;DHT22;32591;48.102;11.772;2022-12-26T09:04:17;9.30;99.90
46117;DHT22;32591;48.102;11.772;2022-12-26T09:06:44;9.40;99.90
46117;DHT22;32591;48.102;11.772;2022-12-26T09:09:11;9.50;99.90
46117;DHT22;32591;48.102;11.772;2022-12-26T09:11:40;9.70;99.90
46117;DHT22;32591;48.102;11.772;2022-12-26T09:14:08;9.70;99.90
46117;DHT22;32591;48.102;11.772;2022-12-26T09:16:38;9.80;99.90
46117;DHT22;32591;48.102;11.772;2022-12-26T09:19:09;9.90;99.90
46117;DHT22;32591;48.102;11.772;2022-12-26T09:21:38;10.10;99.90
46117;DHT22;32591;48.102;11.772;2022-12-26T09:24:08;10.10;99.90
46117;DHT22;32591;48.102;11.772;2022-12-26T09:26:37;10.40;99.90
46117;DHT22;32591;48.102;11.772;2022-12-26T09:29:05;10.50;99.90
46117;DHT22;32591;48.102;11.772;2022-12-26T09:31:34;10.70;99.90
46117;DHT22;32591;48.102;11.772;2022-12-26T09:34:02;10.70;99.90
46117;DHT22;32591;48.102;11.772;2022-12-26T09:36:32;10.80;99.90
46117;DHT22;32591;48.102;11.772;2022-12-26T09:39:03;10.90;99.90
46117;DHT22;32591;48.102;11.772;2022-12-26T09:41:49;10.90;99.90
46117;DHT22;32591;48.102;11.772;2022-12-26T09:44:27;11.00;99.90
46117;DHT22;32591;48.102;11.772;2022-12-26T09:47:06;11.10;99.90
46117;DHT22;32591;48.102;11.772;2022-12-26T09:49:41;11.20;99.90
46117;DHT22;32591;48.102;11.772;2022-12-26T09:52:18;11.10;99.90
46117;DHT22;32591;48.102;11.772;2022-12-26T09:54:50;11.30;99.90
46117;DHT22;32591;48.102;11.772;2022-12-26T09:57:22;11.40;99.90
46117;DHT22;32591;48.102;11.772;2022-12-26T09:59:56;11.40;99.90
46117;DHT22;32591;48.102;11.772;2022-12-26T10:02:25;11.50;99.90
46117;DHT22;32591;48.102;11.772;2022-12-26T10:04:53;11.60;99.90
46117;DHT22;32591;48.102;11.772;2022-12-26T10:07:25;11.60;99.90
46117;DHT22;32591;48.102;11.772;2022-12-26T10:10:02;11.70;99.90
46117;DHT22;32591;48.102;11.772;2022-12-26T10:12:42;11.90;99.90
46117;DHT22;32591;48.102;11.772;2022-12-26T10:15:29;12.00;99.90
46117;DHT22;32591;48.102;11.772;2022-12-26T10:18:06;12.20;99.90
46117;DHT22;32591;48.102;11.772;2022-12-26T10:20:49;12.30;99.90
46117;DHT22;32591;48.102;11.772;2022-12-26T10:23:30;12.30;99.90
46117;DHT22;32591;48.102;11.772;2022-12-26T10:26:04;12.50;99.90
46117;DHT22;32591;48.102;11.772;2022-12-26T10:28:38;12.60;99.90
46117;DHT22;32591;48.102;11.772;2022-12-26T10:31:12;12.70;99.90
46117;DHT22;32591;48.102;11.772;2022-12-26T10:33:46;12.80;99.90
46117;DHT22;32591;48.102;11.772;2022-12-26T10:36:25;12.80;99.80
46117;DHT22;32591;48.102;11.772;2022-12-26T10:38:57;12.90;99.90
46117;DHT22;32591;48.102;11.772;2022-12-26T10:41:27;13.00;99.90
46117;DHT22;32591;48.102;11.772;2022-12-26T10:43:58;13.00;99.90
46117;DHT22;32591;48.102;11.772;2022-12-26T10:46:37;13.10;99.90
46117;DHT22;32591;48.102;11.772;2022-12-26T10:49:24;13.20;99.80
46117;DHT22;32591;48.102;11.772;2022-12-26T10:51:53;13.30;98.80
46117;DHT22;32591;48.102;11.772;2022-12-26T10:54:21;13.30;99.00
46117;DHT22;32591;48.102;11.772;2022-12-26T10:56:50;13.30;99.50
46117;DHT22;32591;48.102;11.772;2022-12-26T10:59:20;13.30;99.40
46117;DHT22;32591;48.102;11.772;2022-12-26T11:01:49;13.40;98.40
46117;DHT22;32591;48.102;11.772;2022-12-26T11:04:19;13.40;98.90
46117;DHT22;32591;48.102;11.772;2022-12-26T11:06:49;13.40;98.90
46117;DHT22;32591;48.102;11.772;2022-12-26T11:09:33;13.40;99.20
46117;DHT22;32591;48.102;11.772;2022-12-26T11:12:05;13.40;98.90
46117;DHT22;32591;48.102;11.772;2022-12-26T11:14:41;13.40;99.90
46117;DHT22;32591;48.102;11.772;2022-12-26T11:17:13;13.40;99.20
46117;DHT22;32591;48.102;11.772;2022-12-26T11:20:09;13.40;98.80
46117;DHT22;32591;48.102;11.772;2022-12-26T11:22:42;13.50;98.50
46117;DHT22;32591;48.102;11.772;2022-12-26T11:25:21;13.40;97.50
46117;DHT22;32591;48.102;11.772;2022-12-26T11:27:51;13.40;97.40
46117;DHT22;32591;48.102;11.772;2022-12-26T11:30:26;13.40;97.10
46117;DHT22;32591;48.102;11.772;2022-12-26T11:33:12;13.30;97.60
46117;DHT22;32591;48.102;11.772;2022-12-26T11:35:51;13.30;97.80
46117;DHT22;32591;48.102;11.772;2022-12-26T11:38:30;13.20;98.00
46117;DHT22;32591;48.102;11.772;2022-12-26T11:41:08;13.20;98.10
46117;DHT22;32591;48.102;11.772;2022-12-26T11:43:57;13.20;98.60
46117;DHT22;32591;48.102;11.772;2022-12-26T11:46:36;13.10;99.00
46117;DHT22;32591;48.102;11.772;2022-12-26T11:49:05;13.10;99.30
46117;DHT22;32591;48.102;11.772;2022-12-26T11:51:35;13.00;99.50
46117;DHT22;32591;48.102;11.772;2022-12-26T11:54:20;13.00;99.70
46117;DHT22;32591;48.102;11.772;2022-12-26T11:57:17;13.00;99.90
46117;DHT22;32591;48.102;11.772;2022-12-26T11:59:47;13.00;99.90
46117;DHT22;32591;48.102;11.772;2022-12-26T12:02:38;12.90;99.90
46117;DHT22;32591;48.102;11.772;2022-12-26T12:05:13;12.90;99.90
46117;DHT22;32591;48.102;11.772;2022-12-26T12:07:53;12.90;99.90
46117;DHT22;32591;48.102;11.772;2022-12-26T12:10:46;12.80;99.90
46117;DHT22;32591;48.102;11.772;2022-12-26T12:13:27;12.80;99.90
46117;DHT22;32591;48.102;11.772;2022-12-26T12:16:06;12.80;99.90
46117;DHT22;32591;48.102;11.772;2022-12-26T12:18:45;12.70;99.90
46117;DHT22;32591;48.102;11.772;2022-12-26T12:21:24;12.70;99.90
46117;DHT22;32591;48.102;11.772;2022-12-26T12:24:06;12.80;99.90
46117;DHT22;32591;48.102;11.772;2022-12-26T12:26:47;12.80;99.90
46117;DHT22;32591;48.102;11.772;2022-12-26T12:29:34;12.90;99.90
46117;DHT22;32591;48.102;11.772;2022-12-26T12:32:15;13.00;99.90
46117;DHT22;32591;48.102;11.772;2022-12-26T12:35:01;13.10;99.90
46117;DHT22;32591;48.102;11.772;2022-12-26T12:37:53;13.20;99.90
46117;DHT22;32591;48.102;11.772;2022-12-26T12:40:33;13.00;99.90
46117;DHT22;32591;48.102;11.772;2022-12-26T12:43:15;12.90;99.90
46117;DHT22;32591;48.102;11.772;2022-12-26T12:45:57;12.70;99.90
46117;DHT22;32591;48.102;11.772;2022-12-26T12:48:45;12.50;99.90
46117;DHT22;32591;48.102;11.772;2022-12-26T12:51:26;12.10;99.90
46117;DHT22;32591;48.102;11.772;2022-12-26T12:57:33;11.50;99.90
46117;DHT22;32591;48.102;11.772;2022-12-26T13:00:12;11.30;99.90
46117;DHT22;32591;48.102;11.772;2022-12-26T13:02:42;11.20;99.90
46117;DHT22;32591;48.102;11.772;2022-12-26T13:05:18;11.10;99.90
46117;DHT22;32591;48.102;11.772;2022-12-26T13:07:54;11.10;99.90
46117;DHT22;32591;48.102;11.772;2022-12-26T13:10:27;11.00;99.90
46117;DHT22;32591;48.102;11.772;2022-12-26T13:12:58;10.90;99.90
46117;DHT22;32591;48.102;11.772;2022-12-26T13:15:31;10.90;99.90
46117;DHT22;32591;48.102;11.772;2022-12-26T13:18:04;10.80;99.90
46117;DHT22;32591;48.102;11.772;2022-12-26T13:20:39;10.60;99.90
46117;DHT22;32591;48.102;11.772;2022-12-26T13:23:15;10.40;99.90
46117;DHT22;32591;48.102;11.772;2022-12-26T13:26:08;10.40;99.90
46117;DHT22;32591;48.102;11.772;2022-12-26T13:28:46;10.20;99.90
46117;DHT22;32591;48.102;11.772;2022-12-26T13:31:17;10.20;99.90
46117;DHT22;32591;48.102;11.772;2022-12-26T13:33:44;10.20;99.90
46117;DHT22;32591;48.102;11.772;2022-12-26T13:36:33;10.10;99.90
46117;DHT22;32591;48.102;11.772;2022-12-26T13:39:35;10.10;99.90
46117;DHT22;32591;48.102;11.772;2022-12-26T13:42:36;10.30;99.90
46117;DHT22;32591;48.102;11.772;2022-12-26T13:45:56;10.10;99.90
46117;DHT22;32591;48.102;11.772;2022-12-26T13:48:55;9.90;99.90
46117;DHT22;32591;48.102;11.772;2022-12-26T13:51:44;9.90;99.90
46117;DHT22;32591;48.102;11.772;2022-12-26T13:54:16;9.90;99.90
46117;DHT22;32591;48.102;11.772;2022-12-26T13:57:34;9.80;99.90
46117;DHT22;32591;48.102;11.772;2022-12-26T14:00:38;9.80;99.90
46117;DHT22;32591;48.102;11.772;2022-12-26T14:03:35;9.80;99.90
46117;DHT22;32591;48.102;11.772;2022-12-26T14:06:43;9.80;99.90
46117;DHT22;32591;48.102;11.772;2022-12-26T14:09:33;9.70;99.90
46117;DHT22;32591;48.102;11.772;2022-12-26T14:12:39;9.70;99.90
46117;DHT22;32591;48.102;11.772;2022-12-26T14:15:33;9.70;99.90
46117;DHT22;32591;48.102;11.772;2022-12-26T14:18:19;9.70;99.90
46117;DHT22;32591;48.102;11.772;2022-12-26T14:20:59;9.60;99.90
46117;DHT22;32591;48.102;11.772;2022-12-26T14:23:46;9.60;99.90
46117;DHT22;32591;48.102;11.772;2022-12-26T14:26:30;9.50;99.90
46117;DHT22;32591;48.102;11.772;2022-12-26T14:29:10;9.50;99.90
46117;DHT22;32591;48.102;11.772;2022-12-26T14:31:49;9.50;99.90
46117;DHT22;32591;48.102;11.772;2022-12-26T14:34:33;9.50;99.90
46117;DHT22;32591;48.102;11.772;2022-12-26T14:37:17;9.40;99.90
46117;DHT22;32591;48.102;11.772;2022-12-26T14:39:59;9.40;99.90
46117;DHT22;32591;48.102;11.772;2022-12-26T14:42:32;9.30;99.90
46117;DHT22;32591;48.102;11.772;2022-12-26T14:45:43;9.30;99.90
46117;DHT22;32591;48.102;11.772;2022-12-26T14:48:48;9.30;99.90
46117;DHT22;32591;48.102;11.772;2022-12-26T14:51:41;9.30;99.90
46117;DHT22;32591;48.102;11.772;2022-12-26T15:00:39;9.20;99.90
46117;DHT22;32591;48.102;11.772;2022-12-26T15:03:39;9.20;99.90
46117;DHT22;32591;48.102;11.772;2022-12-26T15:09:46;9.10;99.90
46117;DHT22;32591;48.102;11.772;2022-12-26T15:15:53;9.10;99.90
46117;DHT22;32591;48.102;11.772;2022-12-26T15:19:02;9.10;99.90
46117;DHT22;32591;48.102;11.772;2022-12-26T15:22:00;9.00;99.90
46117;DHT22;32591;48.102;11.772;2022-12-26T15:28:26;9.00;99.90
46117;DHT22;32591;48.102;11.772;2022-12-26T15:31:39;9.00;99.90
46117;DHT22;32591;48.102;11.772;2022-12-26T15:37:40;9.10;99.90
46117;DHT22;32591;48.102;11.772;2022-12-26T15:40:22;9.10;99.90
46117;DHT22;32591;48.102;11.772;2022-12-26T15:43:03;9.00;99.90
46117;DHT22;32591;48.102;11.772;2022-12-26T15:45:47;9.00;99.90
46117;DHT22;32591;48.102;11.772;2022-12-26T15:48:26;9.00;99.90
46117;DHT22;32591;48.102;11.772;2022-12-26T15:51:03;8.90;99.90
46117;DHT22;32591;48.102;11.772;2022-12-26T15:53:43;8.90;99.90
46117;DHT22;32591;48.102;11.772;2022-12-26T15:56:37;8.80;99.90
46117;DHT22;32591;48.102;11.772;2022-12-26T15:59:47;8.80;99.90
46117;DHT22;32591;48.102;11.772;2022-12-26T16:02:46;8.80;99.90
46117;DHT22;32591;48.102;11.772;2022-12-26T16:05:34;8.80;99.90
46117;DHT22;32591;48.102;11.772;2022-12-26T16:08:30;8.80;99.90
46117;DHT22;32591;48.102;11.772;2022-12-26T16:11:13;8.70;99.90
46117;DHT22;32591;48.102;11.772;2022-12-26T16:13:51;8.70;99.90
46117;DHT22;32591;48.102;11.772;2022-12-26T16:16:25;8.70;99.90
46117;DHT22;32591;48.102;11.772;2022-12-26T16:18:53;8.70;99.90
46117;DHT22;32591;48.102;11.772;2022-12-26T16:21:22;8.60;99.90
46117;DHT22;32591;48.102;11.772;2022-12-26T16:24:11;8.70;99.90
46117;DHT22;32591;48.102;11.772;2022-12-26T16:26:42;8.60;99.90
46117;DHT22;32591;48.102;11.772;2022-12-26T16:29:15;8.60;99.90
46117;DHT22;32591;48.102;11.772;2022-12-26T16:31:45;8.50;99.90
46117;DHT22;32591;48.102;11.772;2022-12-26T16:34:16;8.50;99.90
46117;DHT22;32591;48.102;11.772;2022-12-26T16:36:44;8.50;99.90
46117;DHT22;32591;48.102;11.772;2022-12-26T16:39:20;8.40;99.90
46117;DHT22;32591;48.102;11.772;2022-12-26T16:42:03;8.40;99.90
46117;DHT22;32591;48.102;11.772;2022-12-26T16:44:35;8.40;99.90
46117;DHT22;32591;48.102;11.772;2022-12-26T16:47:06;8.40;99.90
46117;DHT22;32591;48.102;11.772;2022-12-26T16:49:36;8.40;99.90
46117;DHT22;32591;48.102;11.772;2022-12-26T16:52:06;8.30;99.90